sensor_id;sensor_type;location;lat;lon;timestamp;P1;durP1;ratioP1;P2;durP2;ratioP2
43744;SDS011;29359;53.048;8.732;2022-10-30T00:01:37;17.20;;;8.80;;
43744;SDS011;29359;53.048;8.732;2022-10-30T00:03:38;17.02;;;8.80;;
43744;SDS011;29359;53.048;8.732;2022-10-30T00:05:44;18.33;;;8.30;;
43744;SDS011;29359;53.048;8.732;2022-10-30T00:07:47;21.98;;;8.20;;
43744;SDS011;29359;53.048;8.732;2022-10-30T00:09:48;12.60;;;7.78;;
43744;SDS011;29359;53.048;8.732;2022-10-30T00:11:50;15.95;;;8.45;;
43744;SDS011;29359;53.048;8.732;2022-10-30T00:13:51;20.27;;;9.25;;
43744;SDS011;29359;53.048;8.732;2022-10-30T00:15:53;17.25;;;8.02;;
43744;SDS011;29359;53.048;8.732;2022-10-30T00:17:54;14.75;;;8.32;;
43744;SDS011;29359;53.048;8.732;2022-10-30T00:19:56;17.42;;;8.57;;
43744;SDS011;29359;53.048;8.732;2022-10-30T00:21:58;26.08;;;9.40;;
43744;SDS011;29359;53.048;8.732;2022-10-30T00:24:01;21.60;;;8.57;;
43744;SDS011;29359;53.048;8.732;2022-10-30T00:26:04;20.20;;;8.13;;
43744;SDS011;29359;53.048;8.732;2022-10-30T00:28:06;15.40;;;8.40;;
43744;SDS011;29359;53.048;8.732;2022-10-30T00:30:08;19.77;;;8.68;;
43744;SDS011;29359;53.048;8.732;2022-10-30T00:32:10;19.30;;;8.13;;
43744;SDS011;29359;53.048;8.732;2022-10-30T00:34:12;31.83;;;8.57;;
43744;SDS011;29359;53.048;8.732;2022-10-30T00:36:13;17.95;;;8.07;;
43744;SDS011;29359;53.048;8.732;2022-10-30T00:38:15;17.27;;;7.82;;
43744;SDS011;29359;53.048;8.732;2022-10-30T00:40:17;14.75;;;7.63;;
43744;SDS011;29359;53.048;8.732;2022-10-30T00:42:19;14.23;;;7.28;;
43744;SDS011;29359;53.048;8.732;2022-10-30T00:46:38;17.00;;;8.00;;
43744;SDS011;29359;53.048;8.732;2022-10-30T00:48:42;18.77;;;7.20;;
43744;SDS011;29359;53.048;8.732;2022-10-30T00:50:46;11.05;;;6.88;;
43744;SDS011;29359;53.048;8.732;2022-10-30T00:52:51;17.42;;;8.35;;
43744;SDS011;29359;53.048;8.732;2022-10-30T00:54:57;13.68;;;7.07;;
43744;SDS011;29359;53.048;8.732;2022-10-30T00:57:04;11.05;;;7.18;;
43744;SDS011;29359;53.048;8.732;2022-10-30T00:59:08;18.13;;;7.25;;
43744;SDS011;29359;53.048;8.732;2022-10-30T01:01:14;14.10;;;7.72;;
43744;SDS011;29359;53.048;8.732;2022-10-30T01:03:20;17.83;;;8.27;;
43744;SDS011;29359;53.048;8.732;2022-10-30T01:05:23;22.55;;;7.30;;
43744;SDS011;29359;53.048;8.732;2022-10-30T01:07:28;15.35;;;7.60;;
43744;SDS011;29359;53.048;8.732;2022-10-30T01:09:30;14.43;;;7.43;;
43744;SDS011;29359;53.048;8.732;2022-10-30T01:11:32;15.00;;;7.38;;
43744;SDS011;29359;53.048;8.732;2022-10-30T01:13:33;17.13;;;7.85;;
43744;SDS011;29359;53.048;8.732;2022-10-30T01:15:38;16.77;;;8.05;;
43744;SDS011;29359;53.048;8.732;2022-10-30T01:36:16;12.63;;;7.55;;
43744;SDS011;29359;53.048;8.732;2022-10-30T01:39:25;14.77;;;7.35;;
43744;SDS011;29359;53.048;8.732;2022-10-30T01:41:07;19.73;;;7.50;;
43744;SDS011;29359;53.048;8.732;2022-10-30T01:43:09;16.65;;;7.57;;
43744;SDS011;29359;53.048;8.732;2022-10-30T01:45:33;14.80;;;7.88;;
43744;SDS011;29359;53.048;8.732;2022-10-30T01:47:47;18.92;;;7.50;;
43744;SDS011;29359;53.048;8.732;2022-10-30T01:52:54;12.43;;;6.95;;
43744;SDS011;29359;53.048;8.732;2022-10-30T01:55:12;15.32;;;7.15;;
43744;SDS011;29359;53.048;8.732;2022-10-30T01:57:27;12.13;;;7.53;;
43744;SDS011;29359;53.048;8.732;2022-10-30T01:59:47;11.38;;;7.45;;
43744;SDS011;29359;53.048;8.732;2022-10-30T02:01:54;20.65;;;7.93;;
43744;SDS011;29359;53.048;8.732;2022-10-30T02:03:56;12.88;;;7.40;;
43744;SDS011;29359;53.048;8.732;2022-10-30T02:05:58;14.68;;;7.10;;
43744;SDS011;29359;53.048;8.732;2022-10-30T02:08:00;13.70;;;7.32;;
43744;SDS011;29359;53.048;8.732;2022-10-30T02:10:02;16.55;;;7.20;;
43744;SDS011;29359;53.048;8.732;2022-10-30T02:12:05;12.80;;;6.70;;
43744;SDS011;29359;53.048;8.732;2022-10-30T02:14:08;16.08;;;7.43;;
43744;SDS011;29359;53.048;8.732;2022-10-30T02:16:11;13.13;;;7.18;;
43744;SDS011;29359;53.048;8.732;2022-10-30T02:18:12;10.68;;;6.68;;
43744;SDS011;29359;53.048;8.732;2022-10-30T02:20:18;12.30;;;7.60;;
43744;SDS011;29359;53.048;8.732;2022-10-30T02:22:19;19.63;;;6.70;;
43744;SDS011;29359;53.048;8.732;2022-10-30T02:24:21;13.10;;;6.90;;
43744;SDS011;29359;53.048;8.732;2022-10-30T02:26:23;14.43;;;7.38;;
43744;SDS011;29359;53.048;8.732;2022-10-30T02:28:24;12.00;;;7.22;;
43744;SDS011;29359;53.048;8.732;2022-10-30T02:30:26;9.90;;;6.75;;
43744;SDS011;29359;53.048;8.732;2022-10-30T02:32:27;9.95;;;6.72;;
43744;SDS011;29359;53.048;8.732;2022-10-30T02:34:29;15.07;;;7.05;;
43744;SDS011;29359;53.048;8.732;2022-10-30T02:36:30;9.45;;;6.10;;
43744;SDS011;29359;53.048;8.732;2022-10-30T02:38:32;18.23;;;7.53;;
43744;SDS011;29359;53.048;8.732;2022-10-30T02:40:33;18.70;;;7.35;;
43744;SDS011;29359;53.048;8.732;2022-10-30T02:42:35;16.58;;;6.82;;
43744;SDS011;29359;53.048;8.732;2022-10-30T02:44:36;19.48;;;7.97;;
43744;SDS011;29359;53.048;8.732;2022-10-30T02:46:38;16.40;;;6.95;;
43744;SDS011;29359;53.048;8.732;2022-10-30T02:48:39;13.65;;;7.43;;
43744;SDS011;29359;53.048;8.732;2022-10-30T02:50:41;12.38;;;6.78;;
43744;SDS011;29359;53.048;8.732;2022-10-30T02:52:42;9.38;;;6.38;;
43744;SDS011;29359;53.048;8.732;2022-10-30T02:54:44;12.25;;;5.85;;
43744;SDS011;29359;53.048;8.732;2022-10-30T02:56:45;13.98;;;6.57;;
43744;SDS011;29359;53.048;8.732;2022-10-30T02:58:47;14.23;;;7.45;;
43744;SDS011;29359;53.048;8.732;2022-10-30T03:00:48;15.40;;;7.45;;
43744;SDS011;29359;53.048;8.732;2022-10-30T03:02:53;16.85;;;6.75;;
43744;SDS011;29359;53.048;8.732;2022-10-30T03:04:56;13.32;;;6.60;;
43744;SDS011;29359;53.048;8.732;2022-10-30T03:06:57;20.08;;;7.20;;
43744;SDS011;29359;53.048;8.732;2022-10-30T03:08:59;18.35;;;6.75;;
43744;SDS011;29359;53.048;8.732;2022-10-30T03:11:01;13.93;;;6.90;;
43744;SDS011;29359;53.048;8.732;2022-10-30T03:13:05;22.60;;;7.68;;
43744;SDS011;29359;53.048;8.732;2022-10-30T03:15:06;10.57;;;7.10;;
43744;SDS011;29359;53.048;8.732;2022-10-30T03:17:08;20.08;;;8.00;;
43744;SDS011;29359;53.048;8.732;2022-10-30T03:19:10;10.75;;;6.50;;
43744;SDS011;29359;53.048;8.732;2022-10-30T03:21:13;12.85;;;6.50;;
43744;SDS011;29359;53.048;8.732;2022-10-30T03:23:16;14.52;;;6.93;;
43744;SDS011;29359;53.048;8.732;2022-10-30T03:25:18;12.48;;;6.72;;
43744;SDS011;29359;53.048;8.732;2022-10-30T03:27:24;12.70;;;6.20;;
43744;SDS011;29359;53.048;8.732;2022-10-30T03:29:25;21.98;;;6.80;;
43744;SDS011;29359;53.048;8.732;2022-10-30T03:31:27;12.48;;;5.85;;
43744;SDS011;29359;53.048;8.732;2022-10-30T03:33:31;17.50;;;7.40;;
43744;SDS011;29359;53.048;8.732;2022-10-30T03:35:34;13.75;;;6.85;;
43744;SDS011;29359;53.048;8.732;2022-10-30T03:37:36;10.60;;;6.30;;
43744;SDS011;29359;53.048;8.732;2022-10-30T03:39:37;13.50;;;6.47;;
43744;SDS011;29359;53.048;8.732;2022-10-30T03:41:39;9.90;;;6.25;;
43744;SDS011;29359;53.048;8.732;2022-10-30T03:43:40;13.55;;;6.65;;
43744;SDS011;29359;53.048;8.732;2022-10-30T03:45:49;22.55;;;6.55;;
43744;SDS011;29359;53.048;8.732;2022-10-30T03:47:52;20.83;;;7.03;;
43744;SDS011;29359;53.048;8.732;2022-10-30T03:49:54;12.27;;;6.40;;
43744;SDS011;29359;53.048;8.732;2022-10-30T03:51:55;11.82;;;6.30;;
43744;SDS011;29359;53.048;8.732;2022-10-30T03:53:57;19.48;;;6.72;;
43744;SDS011;29359;53.048;8.732;2022-10-30T03:55:59;16.48;;;7.43;;
43744;SDS011;29359;53.048;8.732;2022-10-30T03:58:02;12.88;;;6.43;;
43744;SDS011;29359;53.048;8.732;2022-10-30T04:00:05;11.50;;;6.38;;
43744;SDS011;29359;53.048;8.732;2022-10-30T04:02:07;16.55;;;6.70;;
43744;SDS011;29359;53.048;8.732;2022-10-30T04:04:08;13.10;;;6.20;;
43744;SDS011;29359;53.048;8.732;2022-10-30T04:06:10;11.20;;;6.30;;
43744;SDS011;29359;53.048;8.732;2022-10-30T04:08:12;10.30;;;6.07;;
43744;SDS011;29359;53.048;8.732;2022-10-30T04:10:14;16.17;;;6.47;;
43744;SDS011;29359;53.048;8.732;2022-10-30T04:12:23;12.93;;;5.35;;
43744;SDS011;29359;53.048;8.732;2022-10-30T04:14:25;16.02;;;5.82;;
43744;SDS011;29359;53.048;8.732;2022-10-30T04:16:26;16.58;;;6.25;;
43744;SDS011;29359;53.048;8.732;2022-10-30T04:18:28;19.10;;;6.45;;
43744;SDS011;29359;53.048;8.732;2022-10-30T04:20:30;8.60;;;5.65;;
43744;SDS011;29359;53.048;8.732;2022-10-30T04:22:31;18.45;;;6.15;;
43744;SDS011;29359;53.048;8.732;2022-10-30T04:24:33;11.60;;;5.85;;
43744;SDS011;29359;53.048;8.732;2022-10-30T04:26:34;15.05;;;6.15;;
43744;SDS011;29359;53.048;8.732;2022-10-30T04:28:36;10.48;;;5.85;;
43744;SDS011;29359;53.048;8.732;2022-10-30T04:30:37;14.55;;;5.82;;
43744;SDS011;29359;53.048;8.732;2022-10-30T04:32:46;13.75;;;6.30;;
43744;SDS011;29359;53.048;8.732;2022-10-30T04:34:52;16.15;;;6.43;;
43744;SDS011;29359;53.048;8.732;2022-10-30T04:36:53;21.85;;;6.57;;
43744;SDS011;29359;53.048;8.732;2022-10-30T04:38:55;13.52;;;6.82;;
43744;SDS011;29359;53.048;8.732;2022-10-30T04:40:57;10.07;;;6.10;;
43744;SDS011;29359;53.048;8.732;2022-10-30T04:42:58;10.15;;;5.40;;
43744;SDS011;29359;53.048;8.732;2022-10-30T04:45:00;17.20;;;7.00;;
43744;SDS011;29359;53.048;8.732;2022-10-30T04:47:05;16.05;;;6.70;;
43744;SDS011;29359;53.048;8.732;2022-10-30T04:49:06;14.50;;;6.47;;
43744;SDS011;29359;53.048;8.732;2022-10-30T04:51:08;20.40;;;6.65;;
43744;SDS011;29359;53.048;8.732;2022-10-30T04:53:13;15.95;;;6.10;;
43744;SDS011;29359;53.048;8.732;2022-10-30T04:55:15;9.27;;;5.40;;
43744;SDS011;29359;53.048;8.732;2022-10-30T04:57:17;11.77;;;6.18;;
43744;SDS011;29359;53.048;8.732;2022-10-30T04:59:18;12.10;;;6.13;;
43744;SDS011;29359;53.048;8.732;2022-10-30T05:01:20;15.95;;;6.90;;
43744;SDS011;29359;53.048;8.732;2022-10-30T05:03:22;11.93;;;6.30;;
43744;SDS011;29359;53.048;8.732;2022-10-30T05:05:24;14.60;;;6.80;;
43744;SDS011;29359;53.048;8.732;2022-10-30T05:07:25;13.43;;;6.40;;
43744;SDS011;29359;53.048;8.732;2022-10-30T05:09:27;21.42;;;6.50;;
43744;SDS011;29359;53.048;8.732;2022-10-30T05:11:28;16.38;;;5.78;;
43744;SDS011;29359;53.048;8.732;2022-10-30T05:13:30;15.32;;;6.43;;
43744;SDS011;29359;53.048;8.732;2022-10-30T05:15:32;12.65;;;6.57;;
43744;SDS011;29359;53.048;8.732;2022-10-30T05:17:33;12.73;;;7.03;;
43744;SDS011;29359;53.048;8.732;2022-10-30T05:19:35;19.10;;;6.25;;
43744;SDS011;29359;53.048;8.732;2022-10-30T05:21:36;14.00;;;6.43;;
43744;SDS011;29359;53.048;8.732;2022-10-30T05:23:38;13.30;;;6.30;;
43744;SDS011;29359;53.048;8.732;2022-10-30T05:25:39;22.40;;;7.15;;
43744;SDS011;29359;53.048;8.732;2022-10-30T05:27:41;13.10;;;6.15;;
43744;SDS011;29359;53.048;8.732;2022-10-30T05:29:42;16.67;;;6.47;;
43744;SDS011;29359;53.048;8.732;2022-10-30T05:31:44;18.42;;;6.15;;
43744;SDS011;29359;53.048;8.732;2022-10-30T05:33:45;14.25;;;6.63;;
43744;SDS011;29359;53.048;8.732;2022-10-30T05:35:47;18.35;;;6.75;;
43744;SDS011;29359;53.048;8.732;2022-10-30T05:37:48;17.25;;;6.60;;
43744;SDS011;29359;53.048;8.732;2022-10-30T05:39:50;14.32;;;6.72;;
43744;SDS011;29359;53.048;8.732;2022-10-30T05:41:51;13.25;;;6.53;;
43744;SDS011;29359;53.048;8.732;2022-10-30T05:43:53;12.45;;;6.60;;
43744;SDS011;29359;53.048;8.732;2022-10-30T05:45:54;19.60;;;7.13;;
43744;SDS011;29359;53.048;8.732;2022-10-30T05:47:56;12.05;;;6.38;;
43744;SDS011;29359;53.048;8.732;2022-10-30T05:50:00;16.35;;;6.97;;
43744;SDS011;29359;53.048;8.732;2022-10-30T05:52:01;13.23;;;6.80;;
43744;SDS011;29359;53.048;8.732;2022-10-30T05:54:03;16.75;;;6.97;;
43744;SDS011;29359;53.048;8.732;2022-10-30T05:56:04;14.38;;;7.05;;
43744;SDS011;29359;53.048;8.732;2022-10-30T05:58:06;9.82;;;6.35;;
43744;SDS011;29359;53.048;8.732;2022-10-30T06:00:08;22.70;;;7.05;;
43744;SDS011;29359;53.048;8.732;2022-10-30T06:02:10;22.95;;;6.95;;
43744;SDS011;29359;53.048;8.732;2022-10-30T06:04:11;11.38;;;6.30;;
43744;SDS011;29359;53.048;8.732;2022-10-30T06:06:12;21.25;;;6.35;;
43744;SDS011;29359;53.048;8.732;2022-10-30T06:08:14;13.48;;;6.28;;
43744;SDS011;29359;53.048;8.732;2022-10-30T06:10:20;18.67;;;6.78;;
43744;SDS011;29359;53.048;8.732;2022-10-30T06:12:21;14.15;;;7.05;;
43744;SDS011;29359;53.048;8.732;2022-10-30T06:14:23;15.25;;;6.53;;
43744;SDS011;29359;53.048;8.732;2022-10-30T06:16:24;13.68;;;6.72;;
43744;SDS011;29359;53.048;8.732;2022-10-30T06:18:26;10.63;;;6.15;;
43744;SDS011;29359;53.048;8.732;2022-10-30T06:20:28;17.70;;;7.32;;
43744;SDS011;29359;53.048;8.732;2022-10-30T06:22:31;15.23;;;6.40;;
43744;SDS011;29359;53.048;8.732;2022-10-30T06:24:32;9.95;;;6.47;;
43744;SDS011;29359;53.048;8.732;2022-10-30T06:26:34;12.95;;;6.30;;
43744;SDS011;29359;53.048;8.732;2022-10-30T06:28:35;24.95;;;8.95;;
43744;SDS011;29359;53.048;8.732;2022-10-30T06:30:36;13.85;;;6.30;;
43744;SDS011;29359;53.048;8.732;2022-10-30T06:32:38;12.10;;;6.35;;
43744;SDS011;29359;53.048;8.732;2022-10-30T06:34:39;24.15;;;8.32;;
43744;SDS011;29359;53.048;8.732;2022-10-30T06:36:42;15.45;;;8.18;;
43744;SDS011;29359;53.048;8.732;2022-10-30T06:38:44;28.50;;;16.20;;
43744;SDS011;29359;53.048;8.732;2022-10-30T06:40:46;22.70;;;13.73;;
43744;SDS011;29359;53.048;8.732;2022-10-30T06:42:50;18.73;;;10.48;;
43744;SDS011;29359;53.048;8.732;2022-10-30T06:44:52;17.10;;;10.07;;
43744;SDS011;29359;53.048;8.732;2022-10-30T06:46:54;15.98;;;9.15;;
43744;SDS011;29359;53.048;8.732;2022-10-30T06:48:55;20.60;;;7.13;;
43744;SDS011;29359;53.048;8.732;2022-10-30T06:50:58;15.07;;;8.18;;
43744;SDS011;29359;53.048;8.732;2022-10-30T06:53:02;12.35;;;7.15;;
43744;SDS011;29359;53.048;8.732;2022-10-30T06:55:04;13.63;;;7.05;;
43744;SDS011;29359;53.048;8.732;2022-10-30T06:57:06;16.77;;;7.22;;
43744;SDS011;29359;53.048;8.732;2022-10-30T06:59:08;16.80;;;7.10;;
43744;SDS011;29359;53.048;8.732;2022-10-30T07:01:10;15.02;;;6.97;;
43744;SDS011;29359;53.048;8.732;2022-10-30T07:03:12;16.73;;;6.75;;
43744;SDS011;29359;53.048;8.732;2022-10-30T07:05:13;10.25;;;6.70;;
43744;SDS011;29359;53.048;8.732;2022-10-30T07:07:15;14.38;;;7.20;;
43744;SDS011;29359;53.048;8.732;2022-10-30T07:09:17;11.13;;;6.65;;
43744;SDS011;29359;53.048;8.732;2022-10-30T07:11:18;10.75;;;6.93;;
43744;SDS011;29359;53.048;8.732;2022-10-30T07:13:20;14.73;;;7.20;;
43744;SDS011;29359;53.048;8.732;2022-10-30T07:15:21;15.23;;;6.97;;
43744;SDS011;29359;53.048;8.732;2022-10-30T07:17:23;19.38;;;6.88;;
43744;SDS011;29359;53.048;8.732;2022-10-30T07:19:24;16.80;;;6.93;;
43744;SDS011;29359;53.048;8.732;2022-10-30T07:21:26;17.80;;;6.82;;
43744;SDS011;29359;53.048;8.732;2022-10-30T07:23:27;15.20;;;7.35;;
43744;SDS011;29359;53.048;8.732;2022-10-30T07:25:29;11.82;;;6.70;;
43744;SDS011;29359;53.048;8.732;2022-10-30T07:27:30;10.65;;;6.85;;
43744;SDS011;29359;53.048;8.732;2022-10-30T07:29:32;15.40;;;6.53;;
43744;SDS011;29359;53.048;8.732;2022-10-30T07:31:33;14.38;;;7.07;;
43744;SDS011;29359;53.048;8.732;2022-10-30T07:33:42;16.75;;;7.22;;
43744;SDS011;29359;53.048;8.732;2022-10-30T07:35:44;13.70;;;7.30;;
43744;SDS011;29359;53.048;8.732;2022-10-30T07:37:45;13.55;;;6.70;;
43744;SDS011;29359;53.048;8.732;2022-10-30T07:39:47;14.77;;;7.43;;
43744;SDS011;29359;53.048;8.732;2022-10-30T07:41:48;9.90;;;7.25;;
43744;SDS011;29359;53.048;8.732;2022-10-30T07:43:50;11.68;;;6.47;;
43744;SDS011;29359;53.048;8.732;2022-10-30T07:45:52;15.27;;;7.25;;
43744;SDS011;29359;53.048;8.732;2022-10-30T07:47:53;16.33;;;7.75;;
43744;SDS011;29359;53.048;8.732;2022-10-30T07:49:56;10.07;;;6.90;;
43744;SDS011;29359;53.048;8.732;2022-10-30T07:51:57;13.13;;;8.07;;
43744;SDS011;29359;53.048;8.732;2022-10-30T07:53:59;14.60;;;7.15;;
43744;SDS011;29359;53.048;8.732;2022-10-30T07:56:00;19.67;;;8.32;;
43744;SDS011;29359;53.048;8.732;2022-10-30T07:58:02;22.17;;;8.85;;
43744;SDS011;29359;53.048;8.732;2022-10-30T08:00:04;20.92;;;8.32;;
43744;SDS011;29359;53.048;8.732;2022-10-30T08:02:10;13.77;;;8.20;;
43744;SDS011;29359;53.048;8.732;2022-10-30T08:04:11;24.88;;;8.40;;
43744;SDS011;29359;53.048;8.732;2022-10-30T08:06:14;10.55;;;8.10;;
43744;SDS011;29359;53.048;8.732;2022-10-30T08:08:15;21.33;;;9.07;;
43744;SDS011;29359;53.048;8.732;2022-10-30T08:10:16;20.95;;;9.02;;
43744;SDS011;29359;53.048;8.732;2022-10-30T08:12:18;17.17;;;8.73;;
43744;SDS011;29359;53.048;8.732;2022-10-30T08:14:20;16.00;;;9.38;;
43744;SDS011;29359;53.048;8.732;2022-10-30T08:16:21;18.00;;;8.95;;
43744;SDS011;29359;53.048;8.732;2022-10-30T08:18:23;16.60;;;9.60;;
43744;SDS011;29359;53.048;8.732;2022-10-30T08:20:25;25.13;;;9.57;;
43744;SDS011;29359;53.048;8.732;2022-10-30T08:22:27;26.90;;;9.23;;
43744;SDS011;29359;53.048;8.732;2022-10-30T08:24:28;19.73;;;9.63;;
43744;SDS011;29359;53.048;8.732;2022-10-30T08:26:30;24.08;;;9.50;;
43744;SDS011;29359;53.048;8.732;2022-10-30T08:28:31;29.90;;;11.38;;
43744;SDS011;29359;53.048;8.732;2022-10-30T08:30:34;21.58;;;9.73;;
43744;SDS011;29359;53.048;8.732;2022-10-30T08:32:36;22.52;;;9.13;;
43744;SDS011;29359;53.048;8.732;2022-10-30T08:34:37;22.85;;;10.40;;
43744;SDS011;29359;53.048;8.732;2022-10-30T08:36:40;18.65;;;9.10;;
43744;SDS011;29359;53.048;8.732;2022-10-30T08:38:46;16.95;;;8.80;;
43744;SDS011;29359;53.048;8.732;2022-10-30T08:40:48;18.88;;;9.48;;
43744;SDS011;29359;53.048;8.732;2022-10-30T08:42:50;16.02;;;8.30;;
43744;SDS011;29359;53.048;8.732;2022-10-30T08:44:52;18.52;;;10.00;;
43744;SDS011;29359;53.048;8.732;2022-10-30T08:46:54;27.60;;;12.70;;
43744;SDS011;29359;53.048;8.732;2022-10-30T08:48:55;27.88;;;9.10;;
43744;SDS011;29359;53.048;8.732;2022-10-30T08:50:57;22.38;;;9.45;;
43744;SDS011;29359;53.048;8.732;2022-10-30T08:53:02;28.65;;;9.30;;
43744;SDS011;29359;53.048;8.732;2022-10-30T08:55:04;18.40;;;8.65;;
43744;SDS011;29359;53.048;8.732;2022-10-30T08:57:06;21.58;;;9.38;;
43744;SDS011;29359;53.048;8.732;2022-10-30T08:59:08;22.83;;;9.48;;
43744;SDS011;29359;53.048;8.732;2022-10-30T09:01:10;18.85;;;9.45;;
43744;SDS011;29359;53.048;8.732;2022-10-30T09:03:11;23.05;;;10.30;;
43744;SDS011;29359;53.048;8.732;2022-10-30T09:05:13;22.80;;;10.00;;
43744;SDS011;29359;53.048;8.732;2022-10-30T09:07:14;22.90;;;10.07;;
43744;SDS011;29359;53.048;8.732;2022-10-30T09:09:16;21.95;;;9.98;;
43744;SDS011;29359;53.048;8.732;2022-10-30T09:11:18;26.63;;;8.75;;
43744;SDS011;29359;53.048;8.732;2022-10-30T09:13:19;21.23;;;8.73;;
43744;SDS011;29359;53.048;8.732;2022-10-30T09:15:21;18.50;;;9.23;;
43744;SDS011;29359;53.048;8.732;2022-10-30T09:17:23;19.48;;;9.07;;
43744;SDS011;29359;53.048;8.732;2022-10-30T09:19:25;24.70;;;9.15;;
43744;SDS011;29359;53.048;8.732;2022-10-30T09:21:28;23.25;;;8.57;;
43744;SDS011;29359;53.048;8.732;2022-10-30T09:23:30;23.40;;;8.73;;
43744;SDS011;29359;53.048;8.732;2022-10-30T09:25:31;19.80;;;9.15;;
43744;SDS011;29359;53.048;8.732;2022-10-30T09:27:37;18.52;;;8.77;;
43744;SDS011;29359;53.048;8.732;2022-10-30T09:29:39;21.10;;;8.43;;
43744;SDS011;29359;53.048;8.732;2022-10-30T09:31:40;24.95;;;9.10;;
43744;SDS011;29359;53.048;8.732;2022-10-30T09:33:42;22.23;;;9.07;;
43744;SDS011;29359;53.048;8.732;2022-10-30T09:35:43;26.33;;;8.90;;
43744;SDS011;29359;53.048;8.732;2022-10-30T09:37:45;20.70;;;8.50;;
43744;SDS011;29359;53.048;8.732;2022-10-30T09:39:46;24.45;;;8.00;;
43744;SDS011;29359;53.048;8.732;2022-10-30T09:51:13;20.95;;;8.50;;
43744;SDS011;29359;53.048;8.732;2022-10-30T09:58:03;16.63;;;8.20;;
43744;SDS011;29359;53.048;8.732;2022-10-30T10:05:38;18.60;;;9.32;;
43744;SDS011;29359;53.048;8.732;2022-10-30T10:07:54;17.40;;;8.18;;
43744;SDS011;29359;53.048;8.732;2022-10-30T10:10:10;18.95;;;8.15;;
43744;SDS011;29359;53.048;8.732;2022-10-30T10:12:21;21.08;;;8.02;;
43744;SDS011;29359;53.048;8.732;2022-10-30T10:14:29;21.33;;;8.75;;
43744;SDS011;29359;53.048;8.732;2022-10-30T10:16:37;19.77;;;8.05;;
43744;SDS011;29359;53.048;8.732;2022-10-30T10:18:42;20.45;;;7.70;;
43744;SDS011;29359;53.048;8.732;2022-10-30T10:20:47;27.63;;;8.80;;
43744;SDS011;29359;53.048;8.732;2022-10-30T10:22:52;22.58;;;8.23;;
43744;SDS011;29359;53.048;8.732;2022-10-30T10:24:57;21.13;;;7.20;;
43744;SDS011;29359;53.048;8.732;2022-10-30T10:34:32;17.23;;;7.97;;
43744;SDS011;29359;53.048;8.732;2022-10-30T10:39:15;15.48;;;7.43;;
43744;SDS011;29359;53.048;8.732;2022-10-30T10:43:34;22.98;;;7.15;;
43744;SDS011;29359;53.048;8.732;2022-10-30T10:50:35;19.38;;;7.20;;
43744;SDS011;29359;53.048;8.732;2022-10-30T10:52:51;24.23;;;7.25;;
43744;SDS011;29359;53.048;8.732;2022-10-30T10:54:58;24.05;;;6.63;;
43744;SDS011;29359;53.048;8.732;2022-10-30T10:57:05;23.98;;;8.10;;
43744;SDS011;29359;53.048;8.732;2022-10-30T11:01:20;11.68;;;6.10;;
43744;SDS011;29359;53.048;8.732;2022-10-30T11:03:31;21.75;;;6.45;;
43744;SDS011;29359;53.048;8.732;2022-10-30T11:07:47;17.65;;;6.38;;
43744;SDS011;29359;53.048;8.732;2022-10-30T11:09:51;24.27;;;7.25;;
43744;SDS011;29359;53.048;8.732;2022-10-30T11:11:54;16.55;;;6.22;;
43744;SDS011;29359;53.048;8.732;2022-10-30T11:13:56;16.17;;;5.97;;
43744;SDS011;29359;53.048;8.732;2022-10-30T11:18:27;15.60;;;5.82;;
43744;SDS011;29359;53.048;8.732;2022-10-30T11:22:39;17.23;;;6.40;;
43744;SDS011;29359;53.048;8.732;2022-10-30T11:24:44;18.73;;;5.90;;
43744;SDS011;29359;53.048;8.732;2022-10-30T11:26:46;22.85;;;6.28;;
43744;SDS011;29359;53.048;8.732;2022-10-30T11:28:50;23.73;;;5.93;;
43744;SDS011;29359;53.048;8.732;2022-10-30T11:33:20;21.17;;;6.60;;
43744;SDS011;29359;53.048;8.732;2022-10-30T11:35:23;16.15;;;5.88;;
43744;SDS011;29359;53.048;8.732;2022-10-30T11:37:29;18.95;;;6.18;;
43744;SDS011;29359;53.048;8.732;2022-10-30T11:39:35;20.45;;;6.25;;
43744;SDS011;29359;53.048;8.732;2022-10-30T11:41:36;16.23;;;6.22;;
43744;SDS011;29359;53.048;8.732;2022-10-30T11:43:39;23.63;;;6.53;;
43744;SDS011;29359;53.048;8.732;2022-10-30T11:45:42;21.55;;;5.85;;
43744;SDS011;29359;53.048;8.732;2022-10-30T11:47:44;19.90;;;5.38;;
43744;SDS011;29359;53.048;8.732;2022-10-30T11:49:51;17.08;;;5.88;;
43744;SDS011;29359;53.048;8.732;2022-10-30T11:51:59;14.05;;;5.47;;
43744;SDS011;29359;53.048;8.732;2022-10-30T11:54:02;21.52;;;5.72;;
43744;SDS011;29359;53.048;8.732;2022-10-30T11:56:14;20.35;;;6.25;;
43744;SDS011;29359;53.048;8.732;2022-10-30T11:58:23;23.58;;;6.35;;
43744;SDS011;29359;53.048;8.732;2022-10-30T12:00:28;18.83;;;5.78;;
43744;SDS011;29359;53.048;8.732;2022-10-30T12:02:39;11.57;;;5.75;;
43744;SDS011;29359;53.048;8.732;2022-10-30T12:04:42;18.48;;;6.15;;
43744;SDS011;29359;53.048;8.732;2022-10-30T12:06:44;15.90;;;6.20;;
43744;SDS011;29359;53.048;8.732;2022-10-30T12:09:02;16.27;;;6.38;;
43744;SDS011;29359;53.048;8.732;2022-10-30T12:11:19;16.55;;;5.80;;
43744;SDS011;29359;53.048;8.732;2022-10-30T12:13:21;18.05;;;6.13;;
43744;SDS011;29359;53.048;8.732;2022-10-30T12:15:25;18.85;;;6.32;;
43744;SDS011;29359;53.048;8.732;2022-10-30T12:17:27;19.60;;;6.10;;
43744;SDS011;29359;53.048;8.732;2022-10-30T12:19:29;13.60;;;5.78;;
43744;SDS011;29359;53.048;8.732;2022-10-30T12:21:35;17.17;;;6.07;;
43744;SDS011;29359;53.048;8.732;2022-10-30T12:23:41;19.92;;;5.43;;
43744;SDS011;29359;53.048;8.732;2022-10-30T12:25:45;26.52;;;6.53;;
43744;SDS011;29359;53.048;8.732;2022-10-30T12:27:48;17.48;;;6.43;;
43744;SDS011;29359;53.048;8.732;2022-10-30T12:29:57;19.30;;;5.93;;
43744;SDS011;29359;53.048;8.732;2022-10-30T12:34:40;19.90;;;6.35;;
43744;SDS011;29359;53.048;8.732;2022-10-30T12:36:51;26.80;;;6.97;;
43744;SDS011;29359;53.048;8.732;2022-10-30T12:43:34;20.83;;;6.20;;
43744;SDS011;29359;53.048;8.732;2022-10-30T12:45:38;16.95;;;6.03;;
43744;SDS011;29359;53.048;8.732;2022-10-30T12:47:51;16.60;;;5.95;;
43744;SDS011;29359;53.048;8.732;2022-10-30T12:50:00;16.23;;;6.10;;
43744;SDS011;29359;53.048;8.732;2022-10-30T12:52:20;23.10;;;6.72;;
43744;SDS011;29359;53.048;8.732;2022-10-30T12:54:30;18.85;;;5.90;;
43744;SDS011;29359;53.048;8.732;2022-10-30T12:56:40;20.67;;;5.82;;
43744;SDS011;29359;53.048;8.732;2022-10-30T13:00:51;13.48;;;5.78;;
43744;SDS011;29359;53.048;8.732;2022-10-30T13:03:10;20.38;;;6.10;;
43744;SDS011;29359;53.048;8.732;2022-10-30T13:07:44;20.33;;;5.53;;
43744;SDS011;29359;53.048;8.732;2022-10-30T13:10:14;20.27;;;6.38;;
43744;SDS011;29359;53.048;8.732;2022-10-30T13:12:35;26.73;;;5.80;;
43744;SDS011;29359;53.048;8.732;2022-10-30T13:14:44;23.67;;;6.38;;
43744;SDS011;29359;53.048;8.732;2022-10-30T13:16:49;19.17;;;6.20;;
43744;SDS011;29359;53.048;8.732;2022-10-30T13:18:54;19.40;;;5.45;;
43744;SDS011;29359;53.048;8.732;2022-10-30T13:23:08;15.82;;;5.57;;
43744;SDS011;29359;53.048;8.732;2022-10-30T13:28:03;23.17;;;6.43;;
43744;SDS011;29359;53.048;8.732;2022-10-30T13:30:15;16.45;;;6.00;;
43744;SDS011;29359;53.048;8.732;2022-10-30T13:37:18;13.15;;;5.72;;
43744;SDS011;29359;53.048;8.732;2022-10-30T13:39:32;17.45;;;6.25;;
43744;SDS011;29359;53.048;8.732;2022-10-30T13:41:42;15.95;;;5.85;;
43744;SDS011;29359;53.048;8.732;2022-10-30T13:44:34;11.55;;;5.82;;
43744;SDS011;29359;53.048;8.732;2022-10-30T13:53:38;18.50;;;6.18;;
43744;SDS011;29359;53.048;8.732;2022-10-30T13:55:45;12.88;;;5.72;;